sensor_id;sensor_type;location;lat;lon;timestamp;temperature;humidity
39655;DHT22;25336;59.944;11.010;2023-08-08T00:00:07;19.90;83.80
39655;DHT22;25336;59.944;11.010;2023-08-08T00:02:34;19.90;83.70
39655;DHT22;25336;59.944;11.010;2023-08-08T00:05:00;19.90;83.70
39655;DHT22;25336;59.944;11.010;2023-08-08T00:07:26;19.60;83.50
39655;DHT22;25336;59.944;11.010;2023-08-08T00:09:55;19.80;83.60
39655;DHT22;25336;59.944;11.010;2023-08-08T00:12:21;19.80;83.60
39655;DHT22;25336;59.944;11.010;2023-08-08T00:14:47;19.80;84.30
39655;DHT22;25336;59.944;11.010;2023-08-08T00:17:13;19.80;83.70
39655;DHT22;25336;59.944;11.010;2023-08-08T00:19:39;19.80;83.70
39655;DHT22;25336;59.944;11.010;2023-08-08T00:22:04;19.80;83.90
39655;DHT22;25336;59.944;11.010;2023-08-08T00:24:30;19.80;84.00
39655;DHT22;25336;59.944;11.010;2023-08-08T00:26:56;19.80;84.10
39655;DHT22;25336;59.944;11.010;2023-08-08T00:29:21;19.80;84.10
39655;DHT22;25336;59.944;11.010;2023-08-08T00:31:47;19.80;84.10
39655;DHT22;25336;59.944;11.010;2023-08-08T00:34:12;19.80;84.00
39655;DHT22;25336;59.944;11.010;2023-08-08T00:36:38;19.70;83.70
39655;DHT22;25336;59.944;11.010;2023-08-08T00:39:04;19.70;83.60
39655;DHT22;25336;59.944;11.010;2023-08-08T00:41:29;19.70;83.50
39655;DHT22;25336;59.944;11.010;2023-08-08T00:43:55;19.70;83.40
39655;DHT22;25336;59.944;11.010;2023-08-08T00:46:22;19.70;83.30
39655;DHT22;25336;59.944;11.010;2023-08-08T00:48:50;19.70;83.40
39655;DHT22;25336;59.944;11.010;2023-08-08T00:51:16;19.70;83.30
39655;DHT22;25336;59.944;11.010;2023-08-08T00:53:44;19.70;83.30
39655;DHT22;25336;59.944;11.010;2023-08-08T00:56:11;19.70;83.20
39655;DHT22;25336;59.944;11.010;2023-08-08T00:58:36;19.60;83.10
39655;DHT22;25336;59.944;11.010;2023-08-08T01:01:03;19.60;83.10
39655;DHT22;25336;59.944;11.010;2023-08-08T01:03:29;19.60;83.00
39655;DHT22;25336;59.944;11.010;2023-08-08T01:06:16;19.60;83.10
39655;DHT22;25336;59.944;11.010;2023-08-08T01:09:21;19.60;83.00
39655;DHT22;25336;59.944;11.010;2023-08-08T01:11:49;19.50;82.60
39655;DHT22;25336;59.944;11.010;2023-08-08T01:14:16;19.50;83.00
39655;DHT22;25336;59.944;11.010;2023-08-08T01:16:44;19.50;83.10
39655;DHT22;25336;59.944;11.010;2023-08-08T01:19:14;19.50;83.30
39655;DHT22;25336;59.944;11.010;2023-08-08T01:21:41;19.40;83.20
39655;DHT22;25336;59.944;11.010;2023-08-08T01:24:25;19.40;83.30
39655;DHT22;25336;59.944;11.010;2023-08-08T01:26:53;19.40;83.00
39655;DHT22;25336;59.944;11.010;2023-08-08T01:29:19;19.40;83.20
39655;DHT22;25336;59.944;11.010;2023-08-08T01:31:47;19.40;83.20
39655;DHT22;25336;59.944;11.010;2023-08-08T01:34:13;19.40;83.30
39655;DHT22;25336;59.944;11.010;2023-08-08T01:36:51;19.40;83.20
39655;DHT22;25336;59.944;11.010;2023-08-08T01:39:25;19.40;82.90
39655;DHT22;25336;59.944;11.010;2023-08-08T01:41:52;19.40;83.00
39655;DHT22;25336;59.944;11.010;2023-08-08T01:44:19;19.30;83.00
39655;DHT22;25336;59.944;11.010;2023-08-08T01:46:45;19.30;83.10
39655;DHT22;25336;59.944;11.010;2023-08-08T01:49:11;19.30;83.00
39655;DHT22;25336;59.944;11.010;2023-08-08T01:51:37;19.30;83.00
39655;DHT22;25336;59.944;11.010;2023-08-08T01:54:02;19.30;83.00
39655;DHT22;25336;59.944;11.010;2023-08-08T01:56:28;19.30;82.90
39655;DHT22;25336;59.944;11.010;2023-08-08T01:58:54;19.20;82.80
39655;DHT22;25336;59.944;11.010;2023-08-08T02:01:19;19.20;82.70
39655;DHT22;25336;59.944;11.010;2023-08-08T02:03:45;19.20;82.60
39655;DHT22;25336;59.944;11.010;2023-08-08T02:06:11;19.20;82.50
39655;DHT22;25336;59.944;11.010;2023-08-08T02:08:36;19.10;82.60
39655;DHT22;25336;59.944;11.010;2023-08-08T02:11:02;19.10;82.70
39655;DHT22;25336;59.944;11.010;2023-08-08T02:13:27;19.10;82.80
39655;DHT22;25336;59.944;11.010;2023-08-08T02:15:53;19.00;82.70
39655;DHT22;25336;59.944;11.010;2023-08-08T02:18:19;19.00;82.90
39655;DHT22;25336;59.944;11.010;2023-08-08T02:20:44;19.00;83.00
39655;DHT22;25336;59.944;11.010;2023-08-08T02:23:10;19.00;83.00
39655;DHT22;25336;59.944;11.010;2023-08-08T02:25:35;19.00;83.80
39655;DHT22;25336;59.944;11.010;2023-08-08T02:28:01;19.00;83.00
39655;DHT22;25336;59.944;11.010;2023-08-08T02:30:27;19.00;83.00
39655;DHT22;25336;59.944;11.010;2023-08-08T02:32:52;19.00;83.10
39655;DHT22;25336;59.944;11.010;2023-08-08T02:35:19;18.90;82.90
39655;DHT22;25336;59.944;11.010;2023-08-08T02:37:44;18.90;82.90
39655;DHT22;25336;59.944;11.010;2023-08-08T02:40:10;18.90;82.90
39655;DHT22;25336;59.944;11.010;2023-08-08T02:42:36;18.90;82.80
39655;DHT22;25336;59.944;11.010;2023-08-08T02:45:02;18.90;82.80
39655;DHT22;25336;59.944;11.010;2023-08-08T02:47:27;18.90;82.70
39655;DHT22;25336;59.944;11.010;2023-08-08T02:49:53;18.90;82.70
39655;DHT22;25336;59.944;11.010;2023-08-08T02:52:18;18.90;82.70
39655;DHT22;25336;59.944;11.010;2023-08-08T02:54:44;18.90;82.60
39655;DHT22;25336;59.944;11.010;2023-08-08T02:57:10;18.90;82.60
39655;DHT22;25336;59.944;11.010;2023-08-08T02:59:37;18.80;82.70
39655;DHT22;25336;59.944;11.010;2023-08-08T03:02:03;18.80;82.70
39655;DHT22;25336;59.944;11.010;2023-08-08T03:04:30;18.80;82.90
39655;DHT22;25336;59.944;11.010;2023-08-08T03:06:55;18.80;82.90
39655;DHT22;25336;59.944;11.010;2023-08-08T03:09:21;18.70;82.80
39655;DHT22;25336;59.944;11.010;2023-08-08T03:11:47;18.70;82.80
39655;DHT22;25336;59.944;11.010;2023-08-08T03:14:13;18.70;82.90
39655;DHT22;25336;59.944;11.010;2023-08-08T03:16:39;18.70;82.90
39655;DHT22;25336;59.944;11.010;2023-08-08T03:19:05;18.70;83.00
39655;DHT22;25336;59.944;11.010;2023-08-08T03:21:30;18.60;82.90
39655;DHT22;25336;59.944;11.010;2023-08-08T03:23:57;18.60;83.00
39655;DHT22;25336;59.944;11.010;2023-08-08T03:26:23;18.60;83.20
39655;DHT22;25336;59.944;11.010;2023-08-08T03:28:49;18.60;83.40
39655;DHT22;25336;59.944;11.010;2023-08-08T03:31:16;18.60;83.40
39655;DHT22;25336;59.944;11.010;2023-08-08T03:33:43;18.50;83.40
39655;DHT22;25336;59.944;11.010;2023-08-08T03:36:09;18.50;83.30
39655;DHT22;25336;59.944;11.010;2023-08-08T03:38:34;18.40;83.20
39655;DHT22;25336;59.944;11.010;2023-08-08T03:41:01;18.50;83.20
39655;DHT22;25336;59.944;11.010;2023-08-08T03:43:26;18.50;83.30
39655;DHT22;25336;59.944;11.010;2023-08-08T03:45:52;18.50;83.30
39655;DHT22;25336;59.944;11.010;2023-08-08T03:48:17;18.40;83.20
39655;DHT22;25336;59.944;11.010;2023-08-08T03:50:43;18.40;83.10
39655;DHT22;25336;59.944;11.010;2023-08-08T03:53:09;18.40;83.00
39655;DHT22;25336;59.944;11.010;2023-08-08T03:55:34;18.40;82.90
39655;DHT22;25336;59.944;11.010;2023-08-08T03:58:00;18.40;82.90
39655;DHT22;25336;59.944;11.010;2023-08-08T04:00:25;18.40;82.90
39655;DHT22;25336;59.944;11.010;2023-08-08T04:02:51;18.40;82.90
39655;DHT22;25336;59.944;11.010;2023-08-08T04:05:17;18.40;82.90
39655;DHT22;25336;59.944;11.010;2023-08-08T04:07:43;18.40;82.80
39655;DHT22;25336;59.944;11.010;2023-08-08T04:10:08;18.40;82.80
39655;DHT22;25336;59.944;11.010;2023-08-08T04:12:34;18.40;82.80
39655;DHT22;25336;59.944;11.010;2023-08-08T04:15:00;18.40;82.70
39655;DHT22;25336;59.944;11.010;2023-08-08T04:17:25;18.40;82.70
39655;DHT22;25336;59.944;11.010;2023-08-08T04:19:51;18.40;82.70
39655;DHT22;25336;59.944;11.010;2023-08-08T04:22:17;18.40;82.50
39655;DHT22;25336;59.944;11.010;2023-08-08T04:24:43;18.40;82.60
39655;DHT22;25336;59.944;11.010;2023-08-08T04:27:08;18.50;82.60
39655;DHT22;25336;59.944;11.010;2023-08-08T04:29:34;18.50;82.60
39655;DHT22;25336;59.944;11.010;2023-08-08T04:31:59;18.50;82.50
39655;DHT22;25336;59.944;11.010;2023-08-08T04:34:25;18.50;82.50
39655;DHT22;25336;59.944;11.010;2023-08-08T04:36:51;18.50;82.30
39655;DHT22;25336;59.944;11.010;2023-08-08T04:39:17;18.60;82.90
39655;DHT22;25336;59.944;11.010;2023-08-08T04:41:42;18.60;81.90
39655;DHT22;25336;59.944;11.010;2023-08-08T04:44:08;18.60;81.80
39655;DHT22;25336;59.944;11.010;2023-08-08T04:46:34;18.60;81.70
39655;DHT22;25336;59.944;11.010;2023-08-08T04:48:59;18.50;81.60
39655;DHT22;25336;59.944;11.010;2023-08-08T04:51:25;18.60;81.60
39655;DHT22;25336;59.944;11.010;2023-08-08T04:53:51;18.50;81.50
39655;DHT22;25336;59.944;11.010;2023-08-08T04:56:16;18.50;81.50
39655;DHT22;25336;59.944;11.010;2023-08-08T04:58:42;18.60;81.50
39655;DHT22;25336;59.944;11.010;2023-08-08T05:01:08;18.50;81.60
39655;DHT22;25336;59.944;11.010;2023-08-08T05:03:37;18.60;81.50
39655;DHT22;25336;59.944;11.010;2023-08-08T05:06:02;18.50;81.30
39655;DHT22;25336;59.944;11.010;2023-08-08T05:08:29;18.50;81.30
39655;DHT22;25336;59.944;11.010;2023-08-08T05:10:54;18.60;81.40
39655;DHT22;25336;59.944;11.010;2023-08-08T05:13:20;18.60;81.50
39655;DHT22;25336;59.944;11.010;2023-08-08T05:15:46;18.50;81.40
39655;DHT22;25336;59.944;11.010;2023-08-08T05:18:11;18.60;81.30
39655;DHT22;25336;59.944;11.010;2023-08-08T05:20:37;18.50;81.30
39655;DHT22;25336;59.944;11.010;2023-08-08T05:23:03;18.50;81.40
39655;DHT22;25336;59.944;11.010;2023-08-08T05:25:29;18.50;81.50
39655;DHT22;25336;59.944;11.010;2023-08-08T05:27:54;18.50;81.50
39655;DHT22;25336;59.944;11.010;2023-08-08T05:30:20;18.50;81.50
39655;DHT22;25336;59.944;11.010;2023-08-08T05:32:46;18.50;81.40
39655;DHT22;25336;59.944;11.010;2023-08-08T05:35:12;18.50;81.50
39655;DHT22;25336;59.944;11.010;2023-08-08T05:37:40;18.50;82.40
39655;DHT22;25336;59.944;11.010;2023-08-08T05:40:06;18.50;81.50
39655;DHT22;25336;59.944;11.010;2023-08-08T05:42:32;18.60;81.60
39655;DHT22;25336;59.944;11.010;2023-08-08T05:44:58;18.60;81.60
39655;DHT22;25336;59.944;11.010;2023-08-08T05:47:24;18.10;81.10
39655;DHT22;25336;59.944;11.010;2023-08-08T05:49:50;18.60;81.20
39655;DHT22;25336;59.944;11.010;2023-08-08T05:52:15;18.60;81.00
39655;DHT22;25336;59.944;11.010;2023-08-08T05:54:41;18.60;80.90
39655;DHT22;25336;59.944;11.010;2023-08-08T05:57:06;18.60;81.00
39655;DHT22;25336;59.944;11.010;2023-08-08T05:59:32;18.60;81.00
39655;DHT22;25336;59.944;11.010;2023-08-08T06:01:58;18.60;81.00
39655;DHT22;25336;59.944;11.010;2023-08-08T06:04:24;18.60;80.90
39655;DHT22;25336;59.944;11.010;2023-08-08T06:06:50;18.60;80.90
39655;DHT22;25336;59.944;11.010;2023-08-08T06:09:16;18.60;80.80
39655;DHT22;25336;59.944;11.010;2023-08-08T06:11:42;18.60;80.90
39655;DHT22;25336;59.944;11.010;2023-08-08T06:14:08;18.60;80.80
39655;DHT22;25336;59.944;11.010;2023-08-08T06:16:34;18.60;80.80
39655;DHT22;25336;59.944;11.010;2023-08-08T06:18:59;18.60;80.80
39655;DHT22;25336;59.944;11.010;2023-08-08T06:21:25;18.60;80.80
39655;DHT22;25336;59.944;11.010;2023-08-08T06:23:51;18.70;81.00
39655;DHT22;25336;59.944;11.010;2023-08-08T06:26:20;18.70;80.90
39655;DHT22;25336;59.944;11.010;2023-08-08T06:28:47;18.70;81.70
39655;DHT22;25336;59.944;11.010;2023-08-08T06:31:13;18.70;80.80
39655;DHT22;25336;59.944;11.010;2023-08-08T06:33:39;18.70;80.80
39655;DHT22;25336;59.944;11.010;2023-08-08T06:36:05;18.70;80.80
39655;DHT22;25336;59.944;11.010;2023-08-08T06:38:30;18.70;80.70
39655;DHT22;25336;59.944;11.010;2023-08-08T06:41:02;18.70;80.70
39655;DHT22;25336;59.944;11.010;2023-08-08T06:43:28;18.70;80.60
39655;DHT22;25336;59.944;11.010;2023-08-08T06:45:54;18.80;80.60
39655;DHT22;25336;59.944;11.010;2023-08-08T06:48:20;18.80;80.30
39655;DHT22;25336;59.944;11.010;2023-08-08T06:50:46;18.80;80.30
39655;DHT22;25336;59.944;11.010;2023-08-08T06:53:12;18.80;80.40
39655;DHT22;25336;59.944;11.010;2023-08-08T06:55:37;18.80;80.30
39655;DHT22;25336;59.944;11.010;2023-08-08T06:58:04;18.80;80.10
39655;DHT22;25336;59.944;11.010;2023-08-08T07:00:30;18.80;80.10
39655;DHT22;25336;59.944;11.010;2023-08-08T07:02:55;18.80;80.10
39655;DHT22;25336;59.944;11.010;2023-08-08T07:05:21;18.80;80.10
39655;DHT22;25336;59.944;11.010;2023-08-08T07:07:50;18.80;80.20
39655;DHT22;25336;59.944;11.010;2023-08-08T07:10:16;18.80;80.20
39655;DHT22;25336;59.944;11.010;2023-08-08T07:12:41;18.80;80.20
39655;DHT22;25336;59.944;11.010;2023-08-08T07:15:08;18.80;80.20
39655;DHT22;25336;59.944;11.010;2023-08-08T07:17:34;18.80;81.10
39655;DHT22;25336;59.944;11.010;2023-08-08T07:20:00;18.80;80.60
39655;DHT22;25336;59.944;11.010;2023-08-08T07:22:25;18.80;80.70
39655;DHT22;25336;59.944;11.010;2023-08-08T07:24:52;18.80;81.10
39655;DHT22;25336;59.944;11.010;2023-08-08T07:27:18;18.80;81.00
39655;DHT22;25336;59.944;11.010;2023-08-08T07:29:43;18.80;81.00
39655;DHT22;25336;59.944;11.010;2023-08-08T07:32:09;18.80;80.90
39655;DHT22;25336;59.944;11.010;2023-08-08T07:34:35;18.80;81.00
39655;DHT22;25336;59.944;11.010;2023-08-08T07:37:01;18.80;81.10
39655;DHT22;25336;59.944;11.010;2023-08-08T07:39:28;18.80;81.30
39655;DHT22;25336;59.944;11.010;2023-08-08T07:41:54;18.90;81.20
39655;DHT22;25336;59.944;11.010;2023-08-08T07:44:20;18.90;81.20
39655;DHT22;25336;59.944;11.010;2023-08-08T07:46:45;18.90;81.30
39655;DHT22;25336;59.944;11.010;2023-08-08T07:49:11;18.90;81.20
39655;DHT22;25336;59.944;11.010;2023-08-08T07:51:37;18.90;81.10
39655;DHT22;25336;59.944;11.010;2023-08-08T07:54:03;18.90;81.10
39655;DHT22;25336;59.944;11.010;2023-08-08T07:56:31;18.90;80.90
39655;DHT22;25336;59.944;11.010;2023-08-08T07:58:57;19.00;81.10
39655;DHT22;25336;59.944;11.010;2023-08-08T08:01:22;19.00;81.10
39655;DHT22;25336;59.944;11.010;2023-08-08T08:03:48;19.00;81.00
39655;DHT22;25336;59.944;11.010;2023-08-08T08:06:14;19.00;81.10
39655;DHT22;25336;59.944;11.010;2023-08-08T08:08:39;19.00;81.20
39655;DHT22;25336;59.944;11.010;2023-08-08T08:11:05;18.10;80.70
39655;DHT22;25336;59.944;11.010;2023-08-08T08:13:31;19.90;81.70
39655;DHT22;25336;59.944;11.010;2023-08-08T08:15:56;18.90;80.90
39655;DHT22;25336;59.944;11.010;2023-08-08T08:18:23;18.80;80.90
39655;DHT22;25336;59.944;11.010;2023-08-08T08:20:49;19.00;81.00
39655;DHT22;25336;59.944;11.010;2023-08-08T08:23:15;19.00;81.20
39655;DHT22;25336;59.944;11.010;2023-08-08T08:25:40;19.00;81.10
39655;DHT22;25336;59.944;11.010;2023-08-08T08:28:06;19.00;81.00
39655;DHT22;25336;59.944;11.010;2023-08-08T08:30:32;19.00;81.00
39655;DHT22;25336;59.944;11.010;2023-08-08T08:32:57;19.00;81.00
39655;DHT22;25336;59.944;11.010;2023-08-08T08:35:23;19.10;81.00
39655;DHT22;25336;59.944;11.010;2023-08-08T08:37:48;19.10;80.90
39655;DHT22;25336;59.944;11.010;2023-08-08T08:40:14;19.10;81.20
39655;DHT22;25336;59.944;11.010;2023-08-08T08:42:40;19.10;81.60
39655;DHT22;25336;59.944;11.010;2023-08-08T08:45:08;19.10;81.80
39655;DHT22;25336;59.944;11.010;2023-08-08T08:47:36;19.20;81.50
39655;DHT22;25336;59.944;11.010;2023-08-08T08:50:03;19.20;81.30
39655;DHT22;25336;59.944;11.010;2023-08-08T08:52:29;19.20;81.20
39655;DHT22;25336;59.944;11.010;2023-08-08T08:54:55;19.30;81.00
39655;DHT22;25336;59.944;11.010;2023-08-08T08:57:22;19.20;80.80
39655;DHT22;25336;59.944;11.010;2023-08-08T08:59:52;19.30;80.90
39655;DHT22;25336;59.944;11.010;2023-08-08T09:02:20;19.30;81.20
39655;DHT22;25336;59.944;11.010;2023-08-08T09:04:46;19.30;81.10
39655;DHT22;25336;59.944;11.010;2023-08-08T09:07:13;19.30;81.20
39655;DHT22;25336;59.944;11.010;2023-08-08T09:09:43;18.80;81.00
39655;DHT22;25336;59.944;11.010;2023-08-08T09:12:08;19.40;81.20
39655;DHT22;25336;59.944;11.010;2023-08-08T09:14:40;19.50;81.40
39655;DHT22;25336;59.944;11.010;2023-08-08T09:17:13;19.60;80.40
39655;DHT22;25336;59.944;11.010;2023-08-08T09:19:42;19.60;80.20
39655;DHT22;25336;59.944;11.010;2023-08-08T09:22:09;19.70;80.10
39655;DHT22;25336;59.944;11.010;2023-08-08T09:24:41;19.70;79.50
39655;DHT22;25336;59.944;11.010;2023-08-08T09:27:07;19.70;78.80
39655;DHT22;25336;59.944;11.010;2023-08-08T09:29:33;19.70;79.10
39655;DHT22;25336;59.944;11.010;2023-08-08T09:31:59;19.70;78.70
39655;DHT22;25336;59.944;11.010;2023-08-08T09:34:26;19.70;78.80
39655;DHT22;25336;59.944;11.010;2023-08-08T09:36:52;19.70;78.90
39655;DHT22;25336;59.944;11.010;2023-08-08T09:39:19;19.70;79.00
39655;DHT22;25336;59.944;11.010;2023-08-08T09:41:46;19.70;78.80
39655;DHT22;25336;59.944;11.010;2023-08-08T09:44:12;19.70;78.60
39655;DHT22;25336;59.944;11.010;2023-08-08T09:46:38;19.20;78.10
39655;DHT22;25336;59.944;11.010;2023-08-08T09:49:05;19.70;78.60
39655;DHT22;25336;59.944;11.010;2023-08-08T09:51:31;19.80;78.90
39655;DHT22;25336;59.944;11.010;2023-08-08T09:53:59;19.80;78.60
39655;DHT22;25336;59.944;11.010;2023-08-08T09:56:25;19.70;78.60
39655;DHT22;25336;59.944;11.010;2023-08-08T09:58:51;19.80;78.80
39655;DHT22;25336;59.944;11.010;2023-08-08T10:01:19;19.80;78.70
39655;DHT22;25336;59.944;11.010;2023-08-08T10:03:45;19.80;78.70
39655;DHT22;25336;59.944;11.010;2023-08-08T10:06:14;19.90;78.70
39655;DHT22;25336;59.944;11.010;2023-08-08T10:08:39;19.90;78.40
39655;DHT22;25336;59.944;11.010;2023-08-08T10:11:06;19.90;78.60
39655;DHT22;25336;59.944;11.010;2023-08-08T10:13:35;19.90;78.60
39655;DHT22;25336;59.944;11.010;2023-08-08T10:16:07;20.00;78.50
39655;DHT22;25336;59.944;11.010;2023-08-08T10:18:33;20.00;78.00
39655;DHT22;25336;59.944;11.010;2023-08-08T10:20:59;20.10;78.20
39655;DHT22;25336;59.944;11.010;2023-08-08T10:23:25;20.10;78.70
39655;DHT22;25336;59.944;11.010;2023-08-08T10:25:52;20.10;78.70
39655;DHT22;25336;59.944;11.010;2023-08-08T10:28:21;20.20;78.00
39655;DHT22;25336;59.944;11.010;2023-08-08T10:30:52;20.20;77.30
39655;DHT22;25336;59.944;11.010;2023-08-08T10:33:21;20.20;77.50
39655;DHT22;25336;59.944;11.010;2023-08-08T10:36:01;20.20;77.40
39655;DHT22;25336;59.944;11.010;2023-08-08T10:41:08;20.30;76.50
39655;DHT22;25336;59.944;11.010;2023-08-08T10:43:34;20.30;76.60
39655;DHT22;25336;59.944;11.010;2023-08-08T10:46:03;20.20;76.30
39655;DHT22;25336;59.944;11.010;2023-08-08T10:48:30;20.20;76.00
39655;DHT22;25336;59.944;11.010;2023-08-08T10:50:58;20.20;76.70
39655;DHT22;25336;59.944;11.010;2023-08-08T10:53:28;20.20;76.30
39655;DHT22;25336;59.944;11.010;2023-08-08T10:55:59;20.20;76.00
39655;DHT22;25336;59.944;11.010;2023-08-08T10:58:35;20.20;75.80
39655;DHT22;25336;59.944;11.010;2023-08-08T11:01:02;20.20;75.60
39655;DHT22;25336;59.944;11.010;2023-08-08T11:03:31;20.10;75.90
39655;DHT22;25336;59.944;11.010;2023-08-08T11:05:58;20.10;75.90
39655;DHT22;25336;59.944;11.010;2023-08-08T11:08:24;20.10;76.00
39655;DHT22;25336;59.944;11.010;2023-08-08T11:10:52;20.10;76.40
39655;DHT22;25336;59.944;11.010;2023-08-08T11:13:19;20.10;76.50
39655;DHT22;25336;59.944;11.010;2023-08-08T11:15:45;20.10;76.90
39655;DHT22;25336;59.944;11.010;2023-08-08T11:18:11;20.20;77.30
39655;DHT22;25336;59.944;11.010;2023-08-08T11:20:38;20.20;77.60
39655;DHT22;25336;59.944;11.010;2023-08-08T11:23:05;20.20;77.40
39655;DHT22;25336;59.944;11.010;2023-08-08T11:25:36;20.30;77.40
39655;DHT22;25336;59.944;11.010;2023-08-08T11:28:05;20.40;77.40
39655;DHT22;25336;59.944;11.010;2023-08-08T11:30:34;20.50;77.40
39655;DHT22;25336;59.944;11.010;2023-08-08T11:33:01;20.80;76.40
39655;DHT22;25336;59.944;11.010;2023-08-08T11:35:27;20.60;76.10
39655;DHT22;25336;59.944;11.010;2023-08-08T11:37:54;20.70;75.60
39655;DHT22;25336;59.944;11.010;2023-08-08T11:40:23;20.80;75.10
39655;DHT22;25336;59.944;11.010;2023-08-08T11:42:51;20.90;75.50
39655;DHT22;25336;59.944;11.010;2023-08-08T11:45:17;21.00;75.20
39655;DHT22;25336;59.944;11.010;2023-08-08T11:47:43;21.00;75.50
39655;DHT22;25336;59.944;11.010;2023-08-08T11:50:10;21.10;75.30
39655;DHT22;25336;59.944;11.010;2023-08-08T11:52:46;21.20;74.40
39655;DHT22;25336;59.944;11.010;2023-08-08T11:55:12;21.30;72.90
39655;DHT22;25336;59.944;11.010;2023-08-08T11:57:39;21.30;73.70
39655;DHT22;25336;59.944;11.010;2023-08-08T12:00:07;21.40;73.30
39655;DHT22;25336;59.944;11.010;2023-08-08T12:02:35;21.40;73.30
39655;DHT22;25336;59.944;11.010;2023-08-08T12:05:11;21.40;73.60
39655;DHT22;25336;59.944;11.010;2023-08-08T12:07:38;20.50;72.00
39655;DHT22;25336;59.944;11.010;2023-08-08T12:10:20;21.50;72.90
39655;DHT22;25336;59.944;11.010;2023-08-08T12:12:51;21.50;72.10
39655;DHT22;25336;59.944;11.010;2023-08-08T12:15:17;21.50;72.50
39655;DHT22;25336;59.944;11.010;2023-08-08T12:17:43;21.60;73.60
39655;DHT22;25336;59.944;11.010;2023-08-08T12:20:09;21.60;72.80
39655;DHT22;25336;59.944;11.010;2023-08-08T12:22:35;21.60;72.80
39655;DHT22;25336;59.944;11.010;2023-08-08T12:25:01;21.60;72.70
39655;DHT22;25336;59.944;11.010;2023-08-08T12:27:29;21.60;73.00
39655;DHT22;25336;59.944;11.010;2023-08-08T12:29:54;21.60;72.70
39655;DHT22;25336;59.944;11.010;2023-08-08T12:32:22;21.60;72.70
39655;DHT22;25336;59.944;11.010;2023-08-08T12:34:49;21.60;72.80
39655;DHT22;25336;59.944;11.010;2023-08-08T12:37:15;21.60;73.00
39655;DHT22;25336;59.944;11.010;2023-08-08T12:39:41;21.70;73.10
39655;DHT22;25336;59.944;11.010;2023-08-08T12:42:07;21.70;72.40
39655;DHT22;25336;59.944;11.010;2023-08-08T12:44:32;21.80;72.40
39655;DHT22;25336;59.944;11.010;2023-08-08T12:46:58;21.80;71.80
39655;DHT22;25336;59.944;11.010;2023-08-08T12:49:24;21.80;71.70
39655;DHT22;25336;59.944;11.010;2023-08-08T12:51:50;21.80;71.70
39655;DHT22;25336;59.944;11.010;2023-08-08T12:54:16;21.90;71.30
39655;DHT22;25336;59.944;11.010;2023-08-08T12:56:41;21.90;71.00
39655;DHT22;25336;59.944;11.010;2023-08-08T12:59:08;21.90;70.80
39655;DHT22;25336;59.944;11.010;2023-08-08T13:01:34;21.90;71.10
39655;DHT22;25336;59.944;11.010;2023-08-08T13:04:00;22.00;71.40
39655;DHT22;25336;59.944;11.010;2023-08-08T13:06:25;22.00;71.30
39655;DHT22;25336;59.944;11.010;2023-08-08T13:08:51;21.90;70.90
39655;DHT22;25336;59.944;11.010;2023-08-08T13:11:17;21.90;71.20
39655;DHT22;25336;59.944;11.010;2023-08-08T13:13:42;21.90;71.30
39655;DHT22;25336;59.944;11.010;2023-08-08T13:16:08;21.90;70.90
39655;DHT22;25336;59.944;11.010;2023-08-08T13:18:34;21.90;70.90
39655;DHT22;25336;59.944;11.010;2023-08-08T13:20:59;21.90;70.60
39655;DHT22;25336;59.944;11.010;2023-08-08T13:23:25;21.90;70.90
39655;DHT22;25336;59.944;11.010;2023-08-08T13:25:51;21.80;71.00
39655;DHT22;25336;59.944;11.010;2023-08-08T13:28:16;21.90;70.90
39655;DHT22;25336;59.944;11.010;2023-08-08T13:30:42;21.90;71.20
39655;DHT22;25336;59.944;11.010;2023-08-08T13:33:09;21.80;71.20
39655;DHT22;25336;59.944;11.010;2023-08-08T13:35:35;21.90;71.10
39655;DHT22;25336;59.944;11.010;2023-08-08T13:38:00;21.20;70.60
39655;DHT22;25336;59.944;11.010;2023-08-08T13:40:27;21.90;71.00
39655;DHT22;25336;59.944;11.010;2023-08-08T13:42:52;22.00;71.20
39655;DHT22;25336;59.944;11.010;2023-08-08T13:45:19;21.90;71.20
39655;DHT22;25336;59.944;11.010;2023-08-08T13:47:49;21.80;70.50
39655;DHT22;25336;59.944;11.010;2023-08-08T13:50:14;21.90;70.90
39655;DHT22;25336;59.944;11.010;2023-08-08T13:52:41;21.90;70.30
39655;DHT22;25336;59.944;11.010;2023-08-08T13:55:08;21.90;70.00
39655;DHT22;25336;59.944;11.010;2023-08-08T13:57:34;21.80;69.70
39655;DHT22;25336;59.944;11.010;2023-08-08T14:00:00;21.80;69.70
39655;DHT22;25336;59.944;11.010;2023-08-08T14:02:26;21.70;69.80
39655;DHT22;25336;59.944;11.010;2023-08-08T14:04:52;21.70;69.70
39655;DHT22;25336;59.944;11.010;2023-08-08T14:07:18;21.60;69.80
39655;DHT22;25336;59.944;11.010;2023-08-08T14:09:44;21.60;70.10
39655;DHT22;25336;59.944;11.010;2023-08-08T14:12:10;21.60;70.70
39655;DHT22;25336;59.944;11.010;2023-08-08T14:14:35;21.60;71.00
39655;DHT22;25336;59.944;11.010;2023-08-08T14:17:01;21.50;71.00
39655;DHT22;25336;59.944;11.010;2023-08-08T14:19:27;21.60;71.60
39655;DHT22;25336;59.944;11.010;2023-08-08T14:21:55;21.50;72.00
39655;DHT22;25336;59.944;11.010;2023-08-08T14:24:20;21.50;72.10
39655;DHT22;25336;59.944;11.010;2023-08-08T14:26:46;21.50;72.30
39655;DHT22;25336;59.944;11.010;2023-08-08T14:29:12;21.60;72.60
39655;DHT22;25336;59.944;11.010;2023-08-08T14:31:39;21.60;72.90
39655;DHT22;25336;59.944;11.010;2023-08-08T14:34:04;21.60;72.70
39655;DHT22;25336;59.944;11.010;2023-08-08T14:36:30;21.70;72.80
39655;DHT22;25336;59.944;11.010;2023-08-08T14:38:56;21.70;72.70
39655;DHT22;25336;59.944;11.010;2023-08-08T14:41:21;21.70;72.70
39655;DHT22;25336;59.944;11.010;2023-08-08T14:43:47;21.70;72.80
39655;DHT22;25336;59.944;11.010;2023-08-08T14:46:13;21.70;72.50
39655;DHT22;25336;59.944;11.010;2023-08-08T14:48:39;21.70;72.30
39655;DHT22;25336;59.944;11.010;2023-08-08T14:51:05;21.80;72.20
39655;DHT22;25336;59.944;11.010;2023-08-08T14:53:30;21.80;72.30
39655;DHT22;25336;59.944;11.010;2023-08-08T14:55:56;21.80;72.30
39655;DHT22;25336;59.944;11.010;2023-08-08T14:58:22;21.70;72.30
39655;DHT22;25336;59.944;11.010;2023-08-08T15:00:47;21.70;72.50
39655;DHT22;25336;59.944;11.010;2023-08-08T15:03:14;21.80;72.50
39655;DHT22;25336;59.944;11.010;2023-08-08T15:05:39;21.70;72.50
39655;DHT22;25336;59.944;11.010;2023-08-08T15:08:06;21.70;72.50
39655;DHT22;25336;59.944;11.010;2023-08-08T15:10:32;21.70;72.60
39655;DHT22;25336;59.944;11.010;2023-08-08T15:12:58;21.70;72.50